sensor_id;sensor_type;location;lat;lon;timestamp;temperature;humidity
13332;DHT22;6735;51.456;12.626;2023-12-20T00:01:48;6.00;90.00
13332;DHT22;6735;51.456;12.626;2023-12-20T00:04:14;6.00;90.10
13332;DHT22;6735;51.456;12.626;2023-12-20T00:06:40;6.00;89.90
13332;DHT22;6735;51.456;12.626;2023-12-20T00:09:05;6.00;89.90
13332;DHT22;6735;51.456;12.626;2023-12-20T00:11:30;6.00;89.80
13332;DHT22;6735;51.456;12.626;2023-12-20T00:13:56;6.00;89.90
13332;DHT22;6735;51.456;12.626;2023-12-20T00:16:21;6.00;89.80
13332;DHT22;6735;51.456;12.626;2023-12-20T00:18:47;5.90;89.90
13332;DHT22;6735;51.456;12.626;2023-12-20T00:21:12;5.90;89.90
13332;DHT22;6735;51.456;12.626;2023-12-20T00:23:38;6.00;90.00
13332;DHT22;6735;51.456;12.626;2023-12-20T00:26:03;5.90;90.00
13332;DHT22;6735;51.456;12.626;2023-12-20T00:28:29;6.00;90.00
13332;DHT22;6735;51.456;12.626;2023-12-20T00:30:54;5.90;90.00
13332;DHT22;6735;51.456;12.626;2023-12-20T00:33:20;5.90;90.10
13332;DHT22;6735;51.456;12.626;2023-12-20T00:35:45;5.90;90.20
13332;DHT22;6735;51.456;12.626;2023-12-20T00:38:11;5.90;90.30
13332;DHT22;6735;51.456;12.626;2023-12-20T00:40:37;5.90;90.10
13332;DHT22;6735;51.456;12.626;2023-12-20T00:43:02;5.90;90.00
13332;DHT22;6735;51.456;12.626;2023-12-20T00:45:28;5.90;90.10
13332;DHT22;6735;51.456;12.626;2023-12-20T00:47:54;5.90;90.00
13332;DHT22;6735;51.456;12.626;2023-12-20T00:50:19;5.90;90.10
13332;DHT22;6735;51.456;12.626;2023-12-20T00:52:47;5.90;90.10
13332;DHT22;6735;51.456;12.626;2023-12-20T00:55:12;5.90;90.00
13332;DHT22;6735;51.456;12.626;2023-12-20T00:57:38;5.90;90.00
13332;DHT22;6735;51.456;12.626;2023-12-20T01:00:04;5.90;90.20
13332;DHT22;6735;51.456;12.626;2023-12-20T01:02:29;5.90;90.10
13332;DHT22;6735;51.456;12.626;2023-12-20T01:04:55;5.90;90.10
13332;DHT22;6735;51.456;12.626;2023-12-20T01:07:20;5.90;90.00
13332;DHT22;6735;51.456;12.626;2023-12-20T01:09:46;5.80;90.20
13332;DHT22;6735;51.456;12.626;2023-12-20T01:12:11;5.90;90.30
13332;DHT22;6735;51.456;12.626;2023-12-20T01:14:37;5.90;90.10
13332;DHT22;6735;51.456;12.626;2023-12-20T01:17:02;5.90;90.00
13332;DHT22;6735;51.456;12.626;2023-12-20T01:19:28;5.90;90.10
13332;DHT22;6735;51.456;12.626;2023-12-20T01:21:54;5.90;89.90
13332;DHT22;6735;51.456;12.626;2023-12-20T01:24:20;5.90;90.00
13332;DHT22;6735;51.456;12.626;2023-12-20T01:26:46;5.90;90.00
13332;DHT22;6735;51.456;12.626;2023-12-20T01:29:11;5.90;90.10
13332;DHT22;6735;51.456;12.626;2023-12-20T01:31:38;5.90;90.00
13332;DHT22;6735;51.456;12.626;2023-12-20T01:34:03;5.80;90.10
13332;DHT22;6735;51.456;12.626;2023-12-20T01:36:29;5.90;90.20
13332;DHT22;6735;51.456;12.626;2023-12-20T01:38:54;5.80;90.10
13332;DHT22;6735;51.456;12.626;2023-12-20T01:41:20;5.90;90.10
13332;DHT22;6735;51.456;12.626;2023-12-20T01:43:45;5.80;90.00
13332;DHT22;6735;51.456;12.626;2023-12-20T01:46:11;5.90;90.00
13332;DHT22;6735;51.456;12.626;2023-12-20T01:48:37;5.90;89.80
13332;DHT22;6735;51.456;12.626;2023-12-20T01:51:03;5.80;89.90
13332;DHT22;6735;51.456;12.626;2023-12-20T01:53:29;5.80;90.20
13332;DHT22;6735;51.456;12.626;2023-12-20T01:55:56;5.80;90.10
13332;DHT22;6735;51.456;12.626;2023-12-20T01:58:23;5.80;89.90
13332;DHT22;6735;51.456;12.626;2023-12-20T02:00:50;5.80;89.90
13332;DHT22;6735;51.456;12.626;2023-12-20T02:03:16;5.80;89.80
13332;DHT22;6735;51.456;12.626;2023-12-20T02:05:44;5.80;89.90
13332;DHT22;6735;51.456;12.626;2023-12-20T02:08:10;5.80;90.00
13332;DHT22;6735;51.456;12.626;2023-12-20T02:10:36;5.80;89.90
13332;DHT22;6735;51.456;12.626;2023-12-20T02:13:02;5.80;89.70
13332;DHT22;6735;51.456;12.626;2023-12-20T02:15:27;5.90;89.70
13332;DHT22;6735;51.456;12.626;2023-12-20T02:17:53;5.80;89.60
13332;DHT22;6735;51.456;12.626;2023-12-20T02:20:19;5.80;89.90
13332;DHT22;6735;51.456;12.626;2023-12-20T02:22:44;5.80;89.90
13332;DHT22;6735;51.456;12.626;2023-12-20T02:25:10;5.80;90.00
13332;DHT22;6735;51.456;12.626;2023-12-20T02:27:36;5.80;89.90
13332;DHT22;6735;51.456;12.626;2023-12-20T02:30:02;5.80;90.00
13332;DHT22;6735;51.456;12.626;2023-12-20T02:32:28;5.80;89.90
13332;DHT22;6735;51.456;12.626;2023-12-20T02:34:54;5.80;90.10
13332;DHT22;6735;51.456;12.626;2023-12-20T02:37:20;5.80;90.10
13332;DHT22;6735;51.456;12.626;2023-12-20T02:39:46;5.80;90.10
13332;DHT22;6735;51.456;12.626;2023-12-20T02:42:11;5.80;90.00
13332;DHT22;6735;51.456;12.626;2023-12-20T02:44:36;5.80;90.00
13332;DHT22;6735;51.456;12.626;2023-12-20T02:47:02;5.80;90.10
13332;DHT22;6735;51.456;12.626;2023-12-20T02:49:28;5.70;90.20
13332;DHT22;6735;51.456;12.626;2023-12-20T02:51:53;5.80;90.20
13332;DHT22;6735;51.456;12.626;2023-12-20T02:54:19;5.70;90.20
13332;DHT22;6735;51.456;12.626;2023-12-20T02:56:44;5.80;90.30
13332;DHT22;6735;51.456;12.626;2023-12-20T02:59:10;5.80;90.20
13332;DHT22;6735;51.456;12.626;2023-12-20T03:01:35;5.80;90.30
13332;DHT22;6735;51.456;12.626;2023-12-20T03:04:06;5.80;90.20
13332;DHT22;6735;51.456;12.626;2023-12-20T03:06:32;5.80;90.20
13332;DHT22;6735;51.456;12.626;2023-12-20T03:08:57;5.80;90.30
13332;DHT22;6735;51.456;12.626;2023-12-20T03:11:26;5.80;90.20
13332;DHT22;6735;51.456;12.626;2023-12-20T03:13:52;5.80;90.30
13332;DHT22;6735;51.456;12.626;2023-12-20T03:16:17;5.80;90.30
13332;DHT22;6735;51.456;12.626;2023-12-20T03:18:43;5.80;90.30
13332;DHT22;6735;51.456;12.626;2023-12-20T03:21:08;5.80;90.40
13332;DHT22;6735;51.456;12.626;2023-12-20T03:23:34;5.80;90.40
13332;DHT22;6735;51.456;12.626;2023-12-20T03:26:00;5.80;90.40
13332;DHT22;6735;51.456;12.626;2023-12-20T03:28:27;5.80;90.20
13332;DHT22;6735;51.456;12.626;2023-12-20T03:30:52;5.80;90.30
13332;DHT22;6735;51.456;12.626;2023-12-20T03:33:18;5.90;90.30
13332;DHT22;6735;51.456;12.626;2023-12-20T03:35:43;5.90;90.20
13332;DHT22;6735;51.456;12.626;2023-12-20T03:38:09;5.80;90.20
13332;DHT22;6735;51.456;12.626;2023-12-20T03:40:34;5.90;90.30
13332;DHT22;6735;51.456;12.626;2023-12-20T03:43:00;5.90;90.30
13332;DHT22;6735;51.456;12.626;2023-12-20T03:45:26;5.90;90.20
13332;DHT22;6735;51.456;12.626;2023-12-20T03:47:51;5.90;90.20
13332;DHT22;6735;51.456;12.626;2023-12-20T03:50:22;5.80;90.20
13332;DHT22;6735;51.456;12.626;2023-12-20T03:52:48;5.80;90.50
13332;DHT22;6735;51.456;12.626;2023-12-20T03:55:13;5.90;90.40
13332;DHT22;6735;51.456;12.626;2023-12-20T03:57:39;5.80;90.50
13332;DHT22;6735;51.456;12.626;2023-12-20T04:00:06;5.80;90.60
13332;DHT22;6735;51.456;12.626;2023-12-20T04:02:38;5.90;90.50
13332;DHT22;6735;51.456;12.626;2023-12-20T04:05:05;5.90;90.30
13332;DHT22;6735;51.456;12.626;2023-12-20T04:07:31;5.90;90.30
13332;DHT22;6735;51.456;12.626;2023-12-20T04:09:56;5.90;90.30
13332;DHT22;6735;51.456;12.626;2023-12-20T04:12:22;5.90;90.40
13332;DHT22;6735;51.456;12.626;2023-12-20T04:14:47;5.90;90.30
13332;DHT22;6735;51.456;12.626;2023-12-20T04:17:13;6.00;90.10
13332;DHT22;6735;51.456;12.626;2023-12-20T04:19:41;5.90;90.30
13332;DHT22;6735;51.456;12.626;2023-12-20T04:22:06;5.90;90.30
13332;DHT22;6735;51.456;12.626;2023-12-20T04:24:32;5.90;90.40
13332;DHT22;6735;51.456;12.626;2023-12-20T04:26:57;5.90;90.40
13332;DHT22;6735;51.456;12.626;2023-12-20T04:29:23;5.90;90.20
13332;DHT22;6735;51.456;12.626;2023-12-20T04:31:48;6.00;90.20
13332;DHT22;6735;51.456;12.626;2023-12-20T04:34:16;6.00;90.00
13332;DHT22;6735;51.456;12.626;2023-12-20T04:36:42;6.00;90.20
13332;DHT22;6735;51.456;12.626;2023-12-20T04:39:07;6.00;90.10
13332;DHT22;6735;51.456;12.626;2023-12-20T04:41:33;6.00;90.10
13332;DHT22;6735;51.456;12.626;2023-12-20T04:43:58;6.00;90.10
13332;DHT22;6735;51.456;12.626;2023-12-20T04:46:24;6.00;90.10
13332;DHT22;6735;51.456;12.626;2023-12-20T04:48:49;6.10;90.20
13332;DHT22;6735;51.456;12.626;2023-12-20T04:51:15;6.10;90.10
13332;DHT22;6735;51.456;12.626;2023-12-20T04:53:40;6.00;90.00
13332;DHT22;6735;51.456;12.626;2023-12-20T04:56:06;6.10;90.00
13332;DHT22;6735;51.456;12.626;2023-12-20T04:58:31;6.10;90.00
13332;DHT22;6735;51.456;12.626;2023-12-20T05:00:57;6.10;90.00
13332;DHT22;6735;51.456;12.626;2023-12-20T05:03:22;6.10;90.10
13332;DHT22;6735;51.456;12.626;2023-12-20T05:05:48;6.10;90.10
13332;DHT22;6735;51.456;12.626;2023-12-20T05:08:13;6.10;90.10
13332;DHT22;6735;51.456;12.626;2023-12-20T05:10:39;6.10;90.00
13332;DHT22;6735;51.456;12.626;2023-12-20T05:13:05;6.10;90.00
13332;DHT22;6735;51.456;12.626;2023-12-20T05:15:31;6.10;90.00
13332;DHT22;6735;51.456;12.626;2023-12-20T05:17:56;6.00;90.10
13332;DHT22;6735;51.456;12.626;2023-12-20T05:20:22;6.10;90.20
13332;DHT22;6735;51.456;12.626;2023-12-20T05:22:48;6.10;90.10
13332;DHT22;6735;51.456;12.626;2023-12-20T05:25:14;6.10;90.10
13332;DHT22;6735;51.456;12.626;2023-12-20T05:27:39;6.00;90.10
13332;DHT22;6735;51.456;12.626;2023-12-20T05:30:05;6.00;90.00
13332;DHT22;6735;51.456;12.626;2023-12-20T05:32:31;6.00;90.10
13332;DHT22;6735;51.456;12.626;2023-12-20T05:34:56;6.00;90.00
13332;DHT22;6735;51.456;12.626;2023-12-20T05:37:22;6.00;90.00
13332;DHT22;6735;51.456;12.626;2023-12-20T05:39:47;6.00;90.00
13332;DHT22;6735;51.456;12.626;2023-12-20T05:42:13;6.00;89.90
13332;DHT22;6735;51.456;12.626;2023-12-20T05:44:38;5.90;89.90
13332;DHT22;6735;51.456;12.626;2023-12-20T05:47:04;5.90;90.10
13332;DHT22;6735;51.456;12.626;2023-12-20T05:49:29;5.90;90.10
13332;DHT22;6735;51.456;12.626;2023-12-20T05:51:55;5.90;90.20
13332;DHT22;6735;51.456;12.626;2023-12-20T05:54:20;5.90;90.20
13332;DHT22;6735;51.456;12.626;2023-12-20T05:56:46;5.90;90.10
13332;DHT22;6735;51.456;12.626;2023-12-20T05:59:12;5.90;90.00
13332;DHT22;6735;51.456;12.626;2023-12-20T06:01:37;5.90;90.10
13332;DHT22;6735;51.456;12.626;2023-12-20T06:04:03;5.80;90.30
13332;DHT22;6735;51.456;12.626;2023-12-20T06:06:29;5.80;90.10
13332;DHT22;6735;51.456;12.626;2023-12-20T06:08:55;5.80;90.20
13332;DHT22;6735;51.456;12.626;2023-12-20T06:11:21;5.80;90.20
13332;DHT22;6735;51.456;12.626;2023-12-20T06:13:46;5.80;90.20
13332;DHT22;6735;51.456;12.626;2023-12-20T06:16:12;5.80;90.30
13332;DHT22;6735;51.456;12.626;2023-12-20T06:18:37;5.80;90.30
13332;DHT22;6735;51.456;12.626;2023-12-20T06:21:03;5.70;90.10
13332;DHT22;6735;51.456;12.626;2023-12-20T06:23:29;5.70;90.10
13332;DHT22;6735;51.456;12.626;2023-12-20T06:25:54;5.70;89.90
13332;DHT22;6735;51.456;12.626;2023-12-20T06:28:19;5.70;90.20
13332;DHT22;6735;51.456;12.626;2023-12-20T06:30:45;5.70;90.10
13332;DHT22;6735;51.456;12.626;2023-12-20T06:33:12;5.70;90.20
13332;DHT22;6735;51.456;12.626;2023-12-20T06:35:38;5.60;90.00
13332;DHT22;6735;51.456;12.626;2023-12-20T06:38:04;5.60;89.80
13332;DHT22;6735;51.456;12.626;2023-12-20T06:40:29;5.70;89.80
13332;DHT22;6735;51.456;12.626;2023-12-20T06:42:55;5.70;89.60
13332;DHT22;6735;51.456;12.626;2023-12-20T06:45:20;5.60;89.60
13332;DHT22;6735;51.456;12.626;2023-12-20T06:47:46;5.60;89.80
13332;DHT22;6735;51.456;12.626;2023-12-20T06:50:11;5.50;89.90
13332;DHT22;6735;51.456;12.626;2023-12-20T06:52:37;5.40;89.80
13332;DHT22;6735;51.456;12.626;2023-12-20T06:55:02;5.40;89.80
13332;DHT22;6735;51.456;12.626;2023-12-20T06:57:29;5.30;89.80
13332;DHT22;6735;51.456;12.626;2023-12-20T06:59:54;5.30;89.70
13332;DHT22;6735;51.456;12.626;2023-12-20T07:02:20;5.20;89.80
13332;DHT22;6735;51.456;12.626;2023-12-20T07:04:47;5.20;89.90
13332;DHT22;6735;51.456;12.626;2023-12-20T07:07:13;5.20;89.80
13332;DHT22;6735;51.456;12.626;2023-12-20T07:09:38;5.10;89.90
13332;DHT22;6735;51.456;12.626;2023-12-20T07:12:04;5.10;89.80
13332;DHT22;6735;51.456;12.626;2023-12-20T07:14:30;5.10;90.20
13332;DHT22;6735;51.456;12.626;2023-12-20T07:16:55;5.10;90.40
13332;DHT22;6735;51.456;12.626;2023-12-20T07:19:21;5.10;90.60
13332;DHT22;6735;51.456;12.626;2023-12-20T07:21:46;5.10;90.60
13332;DHT22;6735;51.456;12.626;2023-12-20T07:24:12;5.10;90.50
13332;DHT22;6735;51.456;12.626;2023-12-20T07:26:37;5.10;90.50
13332;DHT22;6735;51.456;12.626;2023-12-20T07:29:03;5.20;90.50
13332;DHT22;6735;51.456;12.626;2023-12-20T07:31:29;5.20;90.40
13332;DHT22;6735;51.456;12.626;2023-12-20T07:33:55;5.20;90.30
13332;DHT22;6735;51.456;12.626;2023-12-20T07:36:20;5.30;90.30
13332;DHT22;6735;51.456;12.626;2023-12-20T07:38:46;5.30;90.40
13332;DHT22;6735;51.456;12.626;2023-12-20T07:41:12;5.30;90.20
13332;DHT22;6735;51.456;12.626;2023-12-20T07:43:38;5.40;90.20
13332;DHT22;6735;51.456;12.626;2023-12-20T07:46:05;5.40;90.10
13332;DHT22;6735;51.456;12.626;2023-12-20T07:48:31;5.60;90.70
13332;DHT22;6735;51.456;12.626;2023-12-20T07:50:56;5.60;90.00
13332;DHT22;6735;51.456;12.626;2023-12-20T07:53:22;5.70;89.50
13332;DHT22;6735;51.456;12.626;2023-12-20T07:55:47;5.70;89.50
13332;DHT22;6735;51.456;12.626;2023-12-20T07:58:13;5.70;89.10
13332;DHT22;6735;51.456;12.626;2023-12-20T08:00:38;5.70;88.50
13332;DHT22;6735;51.456;12.626;2023-12-20T08:03:04;5.70;88.60
13332;DHT22;6735;51.456;12.626;2023-12-20T08:05:29;5.80;88.50
13332;DHT22;6735;51.456;12.626;2023-12-20T08:07:55;5.80;88.30
13332;DHT22;6735;51.456;12.626;2023-12-20T08:10:20;5.70;87.80
13332;DHT22;6735;51.456;12.626;2023-12-20T08:12:45;5.80;87.80
13332;DHT22;6735;51.456;12.626;2023-12-20T08:15:11;5.80;87.70
13332;DHT22;6735;51.456;12.626;2023-12-20T08:17:36;5.90;87.60
13332;DHT22;6735;51.456;12.626;2023-12-20T08:20:02;5.80;87.00
13332;DHT22;6735;51.456;12.626;2023-12-20T08:22:27;5.80;86.80
13332;DHT22;6735;51.456;12.626;2023-12-20T08:24:53;5.80;86.80
13332;DHT22;6735;51.456;12.626;2023-12-20T08:27:18;5.80;86.10
13332;DHT22;6735;51.456;12.626;2023-12-20T08:29:44;6.00;87.50
13332;DHT22;6735;51.456;12.626;2023-12-20T08:32:10;6.10;87.30
13332;DHT22;6735;51.456;12.626;2023-12-20T08:34:36;6.10;86.20
13332;DHT22;6735;51.456;12.626;2023-12-20T08:37:02;6.10;86.10
13332;DHT22;6735;51.456;12.626;2023-12-20T08:39:27;6.00;85.80
13332;DHT22;6735;51.456;12.626;2023-12-20T08:41:53;6.00;85.50
13332;DHT22;6735;51.456;12.626;2023-12-20T08:44:18;5.90;85.60
13332;DHT22;6735;51.456;12.626;2023-12-20T08:46:44;6.00;85.80
13332;DHT22;6735;51.456;12.626;2023-12-20T08:49:09;5.90;85.70
13332;DHT22;6735;51.456;12.626;2023-12-20T08:51:35;5.90;85.50
13332;DHT22;6735;51.456;12.626;2023-12-20T08:54:00;5.90;86.00
13332;DHT22;6735;51.456;12.626;2023-12-20T08:56:26;5.90;85.80
13332;DHT22;6735;51.456;12.626;2023-12-20T08:58:51;6.00;85.90
13332;DHT22;6735;51.456;12.626;2023-12-20T09:01:16;6.10;85.80
13332;DHT22;6735;51.456;12.626;2023-12-20T09:03:42;6.10;85.70
13332;DHT22;6735;51.456;12.626;2023-12-20T09:06:08;6.10;85.50
13332;DHT22;6735;51.456;12.626;2023-12-20T09:08:33;6.10;85.30
13332;DHT22;6735;51.456;12.626;2023-12-20T09:10:59;6.10;85.20
13332;DHT22;6735;51.456;12.626;2023-12-20T09:13:25;6.20;85.10
13332;DHT22;6735;51.456;12.626;2023-12-20T09:15:57;6.20;85.30
13332;DHT22;6735;51.456;12.626;2023-12-20T09:18:23;6.30;85.70
13332;DHT22;6735;51.456;12.626;2023-12-20T09:20:48;6.30;84.50
13332;DHT22;6735;51.456;12.626;2023-12-20T09:23:14;6.40;84.30
13332;DHT22;6735;51.456;12.626;2023-12-20T09:25:39;6.40;84.30
13332;DHT22;6735;51.456;12.626;2023-12-20T09:28:05;6.50;84.40
13332;DHT22;6735;51.456;12.626;2023-12-20T09:30:30;6.50;84.10
13332;DHT22;6735;51.456;12.626;2023-12-20T09:32:57;6.50;83.80
13332;DHT22;6735;51.456;12.626;2023-12-20T09:35:23;6.60;83.80
13332;DHT22;6735;51.456;12.626;2023-12-20T09:37:49;6.70;83.90
13332;DHT22;6735;51.456;12.626;2023-12-20T09:40:18;6.70;83.00
13332;DHT22;6735;51.456;12.626;2023-12-20T09:45:15;6.90;83.90
13332;DHT22;6735;51.456;12.626;2023-12-20T09:47:43;6.90;83.20
13332;DHT22;6735;51.456;12.626;2023-12-20T09:50:09;7.00;83.30
13332;DHT22;6735;51.456;12.626;2023-12-20T09:52:36;7.00;82.70
13332;DHT22;6735;51.456;12.626;2023-12-20T09:55:04;6.90;81.70
13332;DHT22;6735;51.456;12.626;2023-12-20T09:57:31;6.90;81.80
13332;DHT22;6735;51.456;12.626;2023-12-20T09:59:57;6.90;81.90
13332;DHT22;6735;51.456;12.626;2023-12-20T10:02:25;6.90;82.20
13332;DHT22;6735;51.456;12.626;2023-12-20T10:04:52;7.00;82.70
13332;DHT22;6735;51.456;12.626;2023-12-20T10:07:18;7.00;82.10
13332;DHT22;6735;51.456;12.626;2023-12-20T10:09:44;6.90;81.70
13332;DHT22;6735;51.456;12.626;2023-12-20T10:12:09;7.00;81.60
13332;DHT22;6735;51.456;12.626;2023-12-20T10:14:35;7.00;81.90
13332;DHT22;6735;51.456;12.626;2023-12-20T10:17:04;7.00;82.50
13332;DHT22;6735;51.456;12.626;2023-12-20T10:19:31;7.10;81.70
13332;DHT22;6735;51.456;12.626;2023-12-20T10:21:59;7.00;80.90
13332;DHT22;6735;51.456;12.626;2023-12-20T10:24:25;7.00;81.20
13332;DHT22;6735;51.456;12.626;2023-12-20T10:27:02;6.90;81.40
13332;DHT22;6735;51.456;12.626;2023-12-20T10:29:40;6.80;81.30
13332;DHT22;6735;51.456;12.626;2023-12-20T10:32:23;6.90;82.10
13332;DHT22;6735;51.456;12.626;2023-12-20T10:34:52;6.90;82.20
13332;DHT22;6735;51.456;12.626;2023-12-20T10:37:18;7.00;81.90
13332;DHT22;6735;51.456;12.626;2023-12-20T10:39:49;7.10;82.20
13332;DHT22;6735;51.456;12.626;2023-12-20T10:42:16;7.20;82.20
13332;DHT22;6735;51.456;12.626;2023-12-20T10:44:41;7.20;81.50
13332;DHT22;6735;51.456;12.626;2023-12-20T10:47:09;7.20;81.10
13332;DHT22;6735;51.456;12.626;2023-12-20T10:49:37;7.20;80.20
13332;DHT22;6735;51.456;12.626;2023-12-20T10:52:06;7.20;79.90
13332;DHT22;6735;51.456;12.626;2023-12-20T10:54:32;7.30;79.60
13332;DHT22;6735;51.456;12.626;2023-12-20T10:56:58;7.30;80.00
13332;DHT22;6735;51.456;12.626;2023-12-20T10:59:25;7.30;80.30
13332;DHT22;6735;51.456;12.626;2023-12-20T11:01:54;7.40;79.60
13332;DHT22;6735;51.456;12.626;2023-12-20T11:04:28;7.40;78.80
13332;DHT22;6735;51.456;12.626;2023-12-20T11:07:00;7.60;79.90
13332;DHT22;6735;51.456;12.626;2023-12-20T11:09:36;7.60;79.40
13332;DHT22;6735;51.456;12.626;2023-12-20T11:12:15;7.60;79.10
13332;DHT22;6735;51.456;12.626;2023-12-20T11:14:51;7.60;78.60
13332;DHT22;6735;51.456;12.626;2023-12-20T11:17:17;7.60;78.70
13332;DHT22;6735;51.456;12.626;2023-12-20T11:20:04;7.60;78.40
13332;DHT22;6735;51.456;12.626;2023-12-20T11:22:33;7.70;78.50
13332;DHT22;6735;51.456;12.626;2023-12-20T11:25:04;7.80;78.00
13332;DHT22;6735;51.456;12.626;2023-12-20T11:27:31;7.90;77.60
13332;DHT22;6735;51.456;12.626;2023-12-20T11:29:58;7.90;76.40
13332;DHT22;6735;51.456;12.626;2023-12-20T11:34:51;8.10;77.30
13332;DHT22;6735;51.456;12.626;2023-12-20T11:37:19;8.10;76.50
13332;DHT22;6735;51.456;12.626;2023-12-20T11:39:55;7.90;75.60
13332;DHT22;6735;51.456;12.626;2023-12-20T11:42:21;8.10;76.70
13332;DHT22;6735;51.456;12.626;2023-12-20T11:44:47;8.10;76.70
13332;DHT22;6735;51.456;12.626;2023-12-20T11:47:13;8.10;75.10
13332;DHT22;6735;51.456;12.626;2023-12-20T11:49:39;8.10;75.00
13332;DHT22;6735;51.456;12.626;2023-12-20T11:52:05;8.10;75.90
13332;DHT22;6735;51.456;12.626;2023-12-20T11:54:31;8.10;75.30
13332;DHT22;6735;51.456;12.626;2023-12-20T11:56:56;8.10;74.80
13332;DHT22;6735;51.456;12.626;2023-12-20T11:59:23;8.10;75.90
13332;DHT22;6735;51.456;12.626;2023-12-20T12:01:49;8.10;75.20
13332;DHT22;6735;51.456;12.626;2023-12-20T12:04:15;8.10;75.20
13332;DHT22;6735;51.456;12.626;2023-12-20T12:06:43;8.10;74.30
13332;DHT22;6735;51.456;12.626;2023-12-20T12:09:08;8.20;74.70
13332;DHT22;6735;51.456;12.626;2023-12-20T12:11:34;8.20;75.30
13332;DHT22;6735;51.456;12.626;2023-12-20T12:14:00;8.30;75.10
13332;DHT22;6735;51.456;12.626;2023-12-20T12:16:26;8.20;74.40
13332;DHT22;6735;51.456;12.626;2023-12-20T12:18:56;8.20;74.80
13332;DHT22;6735;51.456;12.626;2023-12-20T12:21:21;8.10;74.60
13332;DHT22;6735;51.456;12.626;2023-12-20T12:23:47;8.10;74.60
13332;DHT22;6735;51.456;12.626;2023-12-20T12:26:13;8.20;74.80
13332;DHT22;6735;51.456;12.626;2023-12-20T12:28:42;8.20;74.40
13332;DHT22;6735;51.456;12.626;2023-12-20T12:31:08;8.20;75.60
13332;DHT22;6735;51.456;12.626;2023-12-20T12:33:34;8.20;74.40
13332;DHT22;6735;51.456;12.626;2023-12-20T12:36:00;8.10;74.10
13332;DHT22;6735;51.456;12.626;2023-12-20T12:38:26;8.10;73.60
13332;DHT22;6735;51.456;12.626;2023-12-20T12:40:52;8.10;74.10
13332;DHT22;6735;51.456;12.626;2023-12-20T12:43:19;8.10;73.60
13332;DHT22;6735;51.456;12.626;2023-12-20T12:45:44;8.10;74.60
13332;DHT22;6735;51.456;12.626;2023-12-20T12:48:10;8.10;74.10
13332;DHT22;6735;51.456;12.626;2023-12-20T12:50:35;8.10;74.40
13332;DHT22;6735;51.456;12.626;2023-12-20T12:53:01;8.20;74.50
13332;DHT22;6735;51.456;12.626;2023-12-20T12:55:28;8.20;73.90
13332;DHT22;6735;51.456;12.626;2023-12-20T12:57:53;8.20;74.20
13332;DHT22;6735;51.456;12.626;2023-12-20T13:00:19;8.30;74.10
13332;DHT22;6735;51.456;12.626;2023-12-20T13:02:45;8.20;74.10
13332;DHT22;6735;51.456;12.626;2023-12-20T13:05:10;8.20;74.10
13332;DHT22;6735;51.456;12.626;2023-12-20T13:07:36;8.20;74.70
13332;DHT22;6735;51.456;12.626;2023-12-20T13:10:03;8.10;74.10
13332;DHT22;6735;51.456;12.626;2023-12-20T13:12:29;8.10;74.20
13332;DHT22;6735;51.456;12.626;2023-12-20T13:14:54;8.10;74.70
13332;DHT22;6735;51.456;12.626;2023-12-20T13:17:20;8.10;74.30
13332;DHT22;6735;51.456;12.626;2023-12-20T13:19:46;8.00;73.80
13332;DHT22;6735;51.456;12.626;2023-12-20T13:22:11;8.00;73.80
13332;DHT22;6735;51.456;12.626;2023-12-20T13:24:36;8.10;74.20
13332;DHT22;6735;51.456;12.626;2023-12-20T13:27:02;8.10;74.00
13332;DHT22;6735;51.456;12.626;2023-12-20T13:29:28;8.00;74.60
13332;DHT22;6735;51.456;12.626;2023-12-20T13:31:53;7.90;74.60
13332;DHT22;6735;51.456;12.626;2023-12-20T13:34:19;7.80;74.30
13332;DHT22;6735;51.456;12.626;2023-12-20T13:36:44;7.90;74.70
13332;DHT22;6735;51.456;12.626;2023-12-20T13:39:15;7.90;74.90
13332;DHT22;6735;51.456;12.626;2023-12-20T13:41:40;7.80;74.70
13332;DHT22;6735;51.456;12.626;2023-12-20T13:44:06;7.70;75.10
13332;DHT22;6735;51.456;12.626;2023-12-20T13:46:31;7.80;75.30
13332;DHT22;6735;51.456;12.626;2023-12-20T13:48:57;7.80;74.90
13332;DHT22;6735;51.456;12.626;2023-12-20T13:51:22;7.70;75.20
13332;DHT22;6735;51.456;12.626;2023-12-20T13:53:48;7.70;75.20
13332;DHT22;6735;51.456;12.626;2023-12-20T13:56:14;7.60;75.60
13332;DHT22;6735;51.456;12.626;2023-12-20T13:58:40;7.60;75.80
13332;DHT22;6735;51.456;12.626;2023-12-20T14:01:07;7.60;75.80
13332;DHT22;6735;51.456;12.626;2023-12-20T14:03:33;7.60;75.50
13332;DHT22;6735;51.456;12.626;2023-12-20T14:05:59;7.60;75.60
13332;DHT22;6735;51.456;12.626;2023-12-20T14:08:26;7.60;75.20
13332;DHT22;6735;51.456;12.626;2023-12-20T14:10:52;7.60;75.80
13332;DHT22;6735;51.456;12.626;2023-12-20T14:13:18;7.60;75.70
13332;DHT22;6735;51.456;12.626;2023-12-20T14:15:44;7.60;75.90
13332;DHT22;6735;51.456;12.626;2023-12-20T14:18:09;7.60;75.90
13332;DHT22;6735;51.456;12.626;2023-12-20T14:20:35;7.60;75.60
13332;DHT22;6735;51.456;12.626;2023-12-20T14:23:02;7.50;76.00
13332;DHT22;6735;51.456;12.626;2023-12-20T14:25:28;7.50;76.00
13332;DHT22;6735;51.456;12.626;2023-12-20T14:27:53;7.60;76.00
13332;DHT22;6735;51.456;12.626;2023-12-20T14:30:19;7.50;76.10
13332;DHT22;6735;51.456;12.626;2023-12-20T14:32:44;7.50;76.00
13332;DHT22;6735;51.456;12.626;2023-12-20T14:35:10;7.50;76.10
13332;DHT22;6735;51.456;12.626;2023-12-20T14:37:36;7.50;75.90
13332;DHT22;6735;51.456;12.626;2023-12-20T14:40:09;7.50;77.20
13332;DHT22;6735;51.456;12.626;2023-12-20T14:42:40;7.40;76.30
13332;DHT22;6735;51.456;12.626;2023-12-20T14:45:06;7.40;76.20
13332;DHT22;6735;51.456;12.626;2023-12-20T14:47:32;7.40;76.50
13332;DHT22;6735;51.456;12.626;2023-12-20T14:49:57;7.40;76.60
13332;DHT22;6735;51.456;12.626;2023-12-20T14:52:23;7.30;76.80
13332;DHT22;6735;51.456;12.626;2023-12-20T14:54:49;7.30;76.90
13332;DHT22;6735;51.456;12.626;2023-12-20T14:57:14;7.30;76.80
13332;DHT22;6735;51.456;12.626;2023-12-20T14:59:40;7.30;77.00
13332;DHT22;6735;51.456;12.626;2023-12-20T15:02:05;7.30;77.00
13332;DHT22;6735;51.456;12.626;2023-12-20T15:04:31;7.30;77.20
13332;DHT22;6735;51.456;12.626;2023-12-20T15:06:57;7.30;77.40
13332;DHT22;6735;51.456;12.626;2023-12-20T15:09:22;7.30;77.40
13332;DHT22;6735;51.456;12.626;2023-12-20T15:11:49;7.20;77.90
13332;DHT22;6735;51.456;12.626;2023-12-20T15:14:15;7.30;78.20
13332;DHT22;6735;51.456;12.626;2023-12-20T15:16:44;7.20;79.00
13332;DHT22;6735;51.456;12.626;2023-12-20T15:19:10;7.20;79.50
13332;DHT22;6735;51.456;12.626;2023-12-20T15:21:36;7.20;79.40
13332;DHT22;6735;51.456;12.626;2023-12-20T15:24:06;7.20;79.30
13332;DHT22;6735;51.456;12.626;2023-12-20T15:26:38;7.20;79.50
13332;DHT22;6735;51.456;12.626;2023-12-20T15:29:04;7.20;80.20
13332;DHT22;6735;51.456;12.626;2023-12-20T15:31:29;7.10;80.70
13332;DHT22;6735;51.456;12.626;2023-12-20T15:33:55;7.10;80.90
13332;DHT22;6735;51.456;12.626;2023-12-20T15:36:20;7.10;81.10
13332;DHT22;6735;51.456;12.626;2023-12-20T15:38:46;7.10;81.50
13332;DHT22;6735;51.456;12.626;2023-12-20T15:41:22;7.00;81.70
13332;DHT22;6735;51.456;12.626;2023-12-20T15:43:47;7.10;81.90